sensor_id;sensor_type;location;lat;lon;timestamp;P1;durP1;ratioP1;P2;durP2;ratioP2
11090;SDS011;5599;52.210;21.046;2023-06-10T00:01:26;9.18;;;8.38;;
11090;SDS011;5599;52.210;21.046;2023-06-10T00:03:56;9.50;;;8.63;;
11090;SDS011;5599;52.210;21.046;2023-06-10T00:06:26;10.70;;;9.05;;
11090;SDS011;5599;52.210;21.046;2023-06-10T00:08:55;8.88;;;8.00;;
11090;SDS011;5599;52.210;21.046;2023-06-10T00:11:24;10.45;;;8.88;;
11090;SDS011;5599;52.210;21.046;2023-06-10T00:13:54;8.60;;;7.65;;
11090;SDS011;5599;52.210;21.046;2023-06-10T00:16:24;10.68;;;7.40;;
11090;SDS011;5599;52.210;21.046;2023-06-10T00:18:54;8.85;;;7.38;;
11090;SDS011;5599;52.210;21.046;2023-06-10T00:21:28;8.80;;;7.63;;
11090;SDS011;5599;52.210;21.046;2023-06-10T00:23:57;11.23;;;7.47;;
11090;SDS011;5599;52.210;21.046;2023-06-10T00:26:30;7.38;;;6.78;;
11090;SDS011;5599;52.210;21.046;2023-06-10T00:28:59;10.05;;;7.20;;
11090;SDS011;5599;52.210;21.046;2023-06-10T00:31:30;7.90;;;7.10;;
11090;SDS011;5599;52.210;21.046;2023-06-10T00:34:00;7.53;;;6.40;;
11090;SDS011;5599;52.210;21.046;2023-06-10T00:36:31;9.55;;;6.57;;
11090;SDS011;5599;52.210;21.046;2023-06-10T00:39:00;7.85;;;7.10;;
11090;SDS011;5599;52.210;21.046;2023-06-10T00:41:29;7.18;;;6.45;;
11090;SDS011;5599;52.210;21.046;2023-06-10T00:44:01;6.65;;;6.05;;
11090;SDS011;5599;52.210;21.046;2023-06-10T00:46:31;7.00;;;6.30;;
11090;SDS011;5599;52.210;21.046;2023-06-10T00:49:02;8.23;;;6.45;;
11090;SDS011;5599;52.210;21.046;2023-06-10T00:51:31;8.00;;;6.18;;
11090;SDS011;5599;52.210;21.046;2023-06-10T00:54:01;6.63;;;5.95;;
11090;SDS011;5599;52.210;21.046;2023-06-10T00:56:31;6.80;;;6.10;;
11090;SDS011;5599;52.210;21.046;2023-06-10T00:59:02;9.55;;;6.10;;
11090;SDS011;5599;52.210;21.046;2023-06-10T01:01:33;8.23;;;5.82;;
11090;SDS011;5599;52.210;21.046;2023-06-10T01:04:05;6.07;;;5.32;;
11090;SDS011;5599;52.210;21.046;2023-06-10T01:06:39;9.38;;;5.93;;
11090;SDS011;5599;52.210;21.046;2023-06-10T01:09:21;8.50;;;5.83;;
11090;SDS011;5599;52.210;21.046;2023-06-10T01:11:59;6.00;;;5.50;;
11090;SDS011;5599;52.210;21.046;2023-06-10T01:14:36;8.13;;;5.63;;
11090;SDS011;5599;52.210;21.046;2023-06-10T01:17:07;7.82;;;5.70;;
11090;SDS011;5599;52.210;21.046;2023-06-10T01:19:37;7.88;;;5.55;;
11090;SDS011;5599;52.210;21.046;2023-06-10T01:22:09;11.00;;;5.30;;
11090;SDS011;5599;52.210;21.046;2023-06-10T01:24:43;11.33;;;5.67;;
11090;SDS011;5599;52.210;21.046;2023-06-10T01:27:13;6.13;;;5.07;;
11090;SDS011;5599;52.210;21.046;2023-06-10T01:29:45;8.67;;;5.20;;
11090;SDS011;5599;52.210;21.046;2023-06-10T01:32:21;8.30;;;5.37;;
11090;SDS011;5599;52.210;21.046;2023-06-10T01:34:55;7.67;;;4.73;;
11090;SDS011;5599;52.210;21.046;2023-06-10T01:37:27;5.67;;;5.03;;
11090;SDS011;5599;52.210;21.046;2023-06-10T01:39:58;5.77;;;5.07;;
11090;SDS011;5599;52.210;21.046;2023-06-10T01:42:28;8.53;;;5.17;;
11090;SDS011;5599;52.210;21.046;2023-06-10T01:44:58;7.63;;;4.87;;
11090;SDS011;5599;52.210;21.046;2023-06-10T01:47:27;8.70;;;4.80;;
11090;SDS011;5599;52.210;21.046;2023-06-10T01:49:59;5.63;;;5.00;;
11090;SDS011;5599;52.210;21.046;2023-06-10T01:52:31;8.30;;;5.23;;
11090;SDS011;5599;52.210;21.046;2023-06-10T01:55:00;6.63;;;4.50;;
11090;SDS011;5599;52.210;21.046;2023-06-10T01:57:30;6.67;;;4.57;;
11090;SDS011;5599;52.210;21.046;2023-06-10T01:59:59;6.27;;;4.50;;
11090;SDS011;5599;52.210;21.046;2023-06-10T02:02:28;9.93;;;4.87;;
11090;SDS011;5599;52.210;21.046;2023-06-10T02:04:58;6.07;;;4.60;;
11090;SDS011;5599;52.210;21.046;2023-06-10T02:07:28;5.80;;;4.77;;
11090;SDS011;5599;52.210;21.046;2023-06-10T02:09:58;5.63;;;4.83;;
11090;SDS011;5599;52.210;21.046;2023-06-10T02:12:28;6.10;;;4.53;;
11090;SDS011;5599;52.210;21.046;2023-06-10T02:14:57;7.00;;;4.90;;
11090;SDS011;5599;52.210;21.046;2023-06-10T02:17:27;6.63;;;4.30;;
11090;SDS011;5599;52.210;21.046;2023-06-10T02:19:58;5.73;;;4.97;;
11090;SDS011;5599;52.210;21.046;2023-06-10T02:22:34;7.10;;;5.00;;
11090;SDS011;5599;52.210;21.046;2023-06-10T02:25:05;8.30;;;4.77;;
11090;SDS011;5599;52.210;21.046;2023-06-10T02:27:35;7.73;;;5.03;;
11090;SDS011;5599;52.210;21.046;2023-06-10T02:30:05;5.40;;;4.53;;
11090;SDS011;5599;52.210;21.046;2023-06-10T02:32:37;6.60;;;4.87;;
11090;SDS011;5599;52.210;21.046;2023-06-10T02:35:08;7.10;;;5.23;;
11090;SDS011;5599;52.210;21.046;2023-06-10T02:37:40;8.07;;;4.93;;
11090;SDS011;5599;52.210;21.046;2023-06-10T02:40:11;6.37;;;5.33;;
11090;SDS011;5599;52.210;21.046;2023-06-10T02:42:40;10.17;;;4.87;;
11090;SDS011;5599;52.210;21.046;2023-06-10T02:45:10;8.27;;;4.80;;
11090;SDS011;5599;52.210;21.046;2023-06-10T02:47:42;7.43;;;5.20;;
11090;SDS011;5599;52.210;21.046;2023-06-10T02:50:12;8.70;;;5.37;;
11090;SDS011;5599;52.210;21.046;2023-06-10T02:52:55;5.93;;;4.90;;
11090;SDS011;5599;52.210;21.046;2023-06-10T02:55:26;7.27;;;4.70;;
11090;SDS011;5599;52.210;21.046;2023-06-10T02:58:00;6.40;;;4.87;;
11090;SDS011;5599;52.210;21.046;2023-06-10T03:00:31;7.43;;;4.57;;
11090;SDS011;5599;52.210;21.046;2023-06-10T03:03:00;7.97;;;4.97;;
11090;SDS011;5599;52.210;21.046;2023-06-10T03:05:40;9.33;;;5.17;;
11090;SDS011;5599;52.210;21.046;2023-06-10T03:08:10;6.03;;;4.90;;
11090;SDS011;5599;52.210;21.046;2023-06-10T03:10:43;7.77;;;4.93;;
11090;SDS011;5599;52.210;21.046;2023-06-10T03:13:15;6.43;;;4.80;;
11090;SDS011;5599;52.210;21.046;2023-06-10T03:15:45;10.07;;;4.70;;
11090;SDS011;5599;52.210;21.046;2023-06-10T03:18:17;6.10;;;4.60;;
11090;SDS011;5599;52.210;21.046;2023-06-10T03:20:48;9.60;;;5.43;;
11090;SDS011;5599;52.210;21.046;2023-06-10T03:23:19;8.43;;;4.90;;
11090;SDS011;5599;52.210;21.046;2023-06-10T03:25:51;7.57;;;4.67;;
11090;SDS011;5599;52.210;21.046;2023-06-10T03:28:23;7.57;;;4.53;;
11090;SDS011;5599;52.210;21.046;2023-06-10T03:30:53;7.17;;;4.63;;
11090;SDS011;5599;52.210;21.046;2023-06-10T03:33:25;8.47;;;5.20;;
11090;SDS011;5599;52.210;21.046;2023-06-10T03:35:55;10.40;;;4.73;;
11090;SDS011;5599;52.210;21.046;2023-06-10T03:38:25;5.67;;;4.97;;
11090;SDS011;5599;52.210;21.046;2023-06-10T03:40:56;6.63;;;4.13;;
11090;SDS011;5599;52.210;21.046;2023-06-10T03:43:26;5.03;;;4.40;;
11090;SDS011;5599;52.210;21.046;2023-06-10T03:45:55;7.43;;;5.30;;
11090;SDS011;5599;52.210;21.046;2023-06-10T03:48:25;6.97;;;4.77;;
11090;SDS011;5599;52.210;21.046;2023-06-10T03:50:55;5.85;;;4.07;;
11090;SDS011;5599;52.210;21.046;2023-06-10T03:53:25;5.47;;;4.15;;
11090;SDS011;5599;52.210;21.046;2023-06-10T03:55:56;8.68;;;4.57;;
11090;SDS011;5599;52.210;21.046;2023-06-10T03:58:26;7.40;;;4.10;;
11090;SDS011;5599;52.210;21.046;2023-06-10T04:00:56;5.20;;;4.68;;
11090;SDS011;5599;52.210;21.046;2023-06-10T04:03:32;7.38;;;4.38;;
11090;SDS011;5599;52.210;21.046;2023-06-10T04:06:01;8.25;;;4.82;;
11090;SDS011;5599;52.210;21.046;2023-06-10T04:08:32;7.68;;;4.32;;
11090;SDS011;5599;52.210;21.046;2023-06-10T04:11:03;7.00;;;4.60;;
11090;SDS011;5599;52.210;21.046;2023-06-10T04:13:32;4.32;;;3.92;;
11090;SDS011;5599;52.210;21.046;2023-06-10T04:16:01;7.30;;;4.50;;
11090;SDS011;5599;52.210;21.046;2023-06-10T04:18:30;7.85;;;4.70;;
11090;SDS011;5599;52.210;21.046;2023-06-10T04:21:05;6.32;;;4.43;;
11090;SDS011;5599;52.210;21.046;2023-06-10T04:23:34;7.57;;;4.97;;
11090;SDS011;5599;52.210;21.046;2023-06-10T04:26:07;5.68;;;4.68;;
11090;SDS011;5599;52.210;21.046;2023-06-10T04:28:39;5.13;;;3.95;;
11090;SDS011;5599;52.210;21.046;2023-06-10T04:31:08;5.63;;;4.30;;
11090;SDS011;5599;52.210;21.046;2023-06-10T04:33:38;9.55;;;4.30;;
11090;SDS011;5599;52.210;21.046;2023-06-10T04:36:07;5.15;;;4.65;;
11090;SDS011;5599;52.210;21.046;2023-06-10T04:38:37;8.23;;;4.57;;
11090;SDS011;5599;52.210;21.046;2023-06-10T04:41:09;7.68;;;4.55;;
11090;SDS011;5599;52.210;21.046;2023-06-10T04:43:39;9.52;;;4.40;;
11090;SDS011;5599;52.210;21.046;2023-06-10T04:46:08;5.45;;;4.40;;
11090;SDS011;5599;52.210;21.046;2023-06-10T04:48:38;6.32;;;4.50;;
11090;SDS011;5599;52.210;21.046;2023-06-10T04:51:09;9.93;;;4.30;;
11090;SDS011;5599;52.210;21.046;2023-06-10T04:53:38;4.75;;;4.25;;
11090;SDS011;5599;52.210;21.046;2023-06-10T04:56:08;7.00;;;4.50;;
11090;SDS011;5599;52.210;21.046;2023-06-10T04:58:38;5.68;;;4.40;;
11090;SDS011;5599;52.210;21.046;2023-06-10T05:01:07;8.07;;;4.40;;
11090;SDS011;5599;52.210;21.046;2023-06-10T05:03:36;6.68;;;4.45;;
11090;SDS011;5599;52.210;21.046;2023-06-10T05:06:06;9.30;;;4.70;;
11090;SDS011;5599;52.210;21.046;2023-06-10T05:08:35;6.40;;;4.43;;
11090;SDS011;5599;52.210;21.046;2023-06-10T05:11:04;7.47;;;4.75;;
11090;SDS011;5599;52.210;21.046;2023-06-10T05:13:35;6.13;;;4.47;;
11090;SDS011;5599;52.210;21.046;2023-06-10T05:16:07;7.38;;;4.20;;
11090;SDS011;5599;52.210;21.046;2023-06-10T05:18:37;6.22;;;4.30;;
11090;SDS011;5599;52.210;21.046;2023-06-10T05:21:06;6.50;;;4.15;;
11090;SDS011;5599;52.210;21.046;2023-06-10T05:23:35;7.00;;;4.20;;
11090;SDS011;5599;52.210;21.046;2023-06-10T05:26:05;7.65;;;4.25;;
11090;SDS011;5599;52.210;21.046;2023-06-10T05:28:35;5.55;;;4.30;;
11090;SDS011;5599;52.210;21.046;2023-06-10T05:31:05;7.45;;;4.80;;
11090;SDS011;5599;52.210;21.046;2023-06-10T05:33:34;7.18;;;4.22;;
11090;SDS011;5599;52.210;21.046;2023-06-10T05:36:03;7.60;;;4.40;;
11090;SDS011;5599;52.210;21.046;2023-06-10T05:38:33;5.38;;;4.57;;
11090;SDS011;5599;52.210;21.046;2023-06-10T05:41:02;6.70;;;4.28;;
11090;SDS011;5599;52.210;21.046;2023-06-10T05:43:32;5.95;;;4.53;;
11090;SDS011;5599;52.210;21.046;2023-06-10T05:46:02;10.27;;;4.38;;
11090;SDS011;5599;52.210;21.046;2023-06-10T05:48:32;7.88;;;4.65;;
11090;SDS011;5599;52.210;21.046;2023-06-10T05:51:01;5.85;;;4.22;;
11090;SDS011;5599;52.210;21.046;2023-06-10T05:53:31;6.10;;;4.10;;
11090;SDS011;5599;52.210;21.046;2023-06-10T05:56:00;8.45;;;4.47;;
11090;SDS011;5599;52.210;21.046;2023-06-10T05:58:29;7.93;;;4.30;;
11090;SDS011;5599;52.210;21.046;2023-06-10T06:00:59;6.90;;;4.35;;
11090;SDS011;5599;52.210;21.046;2023-06-10T06:03:30;6.18;;;4.30;;
11090;SDS011;5599;52.210;21.046;2023-06-10T06:05:59;9.73;;;4.53;;
11090;SDS011;5599;52.210;21.046;2023-06-10T06:08:29;5.38;;;4.85;;
11090;SDS011;5599;52.210;21.046;2023-06-10T06:10:58;9.57;;;4.70;;
11090;SDS011;5599;52.210;21.046;2023-06-10T06:13:27;6.88;;;4.38;;
11090;SDS011;5599;52.210;21.046;2023-06-10T06:15:56;12.63;;;4.80;;
11090;SDS011;5599;52.210;21.046;2023-06-10T06:18:26;5.55;;;4.38;;
11090;SDS011;5599;52.210;21.046;2023-06-10T06:20:56;10.10;;;4.28;;
11090;SDS011;5599;52.210;21.046;2023-06-10T06:23:26;6.43;;;4.13;;
11090;SDS011;5599;52.210;21.046;2023-06-10T06:25:55;7.07;;;4.72;;
11090;SDS011;5599;52.210;21.046;2023-06-10T06:28:24;10.82;;;4.85;;
11090;SDS011;5599;52.210;21.046;2023-06-10T06:30:56;5.35;;;4.55;;
11090;SDS011;5599;52.210;21.046;2023-06-10T06:33:25;7.15;;;4.38;;
11090;SDS011;5599;52.210;21.046;2023-06-10T06:35:56;6.18;;;4.20;;
11090;SDS011;5599;52.210;21.046;2023-06-10T06:38:27;8.10;;;4.30;;
11090;SDS011;5599;52.210;21.046;2023-06-10T06:40:56;7.55;;;4.40;;
11090;SDS011;5599;52.210;21.046;2023-06-10T06:43:30;7.65;;;4.55;;
11090;SDS011;5599;52.210;21.046;2023-06-10T06:46:17;7.57;;;4.93;;
11090;SDS011;5599;52.210;21.046;2023-06-10T06:48:47;7.60;;;4.72;;
11090;SDS011;5599;52.210;21.046;2023-06-10T06:51:18;5.30;;;4.35;;
11090;SDS011;5599;52.210;21.046;2023-06-10T06:53:47;6.15;;;4.07;;
11090;SDS011;5599;52.210;21.046;2023-06-10T06:56:18;8.90;;;5.10;;
11090;SDS011;5599;52.210;21.046;2023-06-10T06:58:48;8.63;;;4.43;;
11090;SDS011;5599;52.210;21.046;2023-06-10T07:01:17;4.97;;;4.47;;
11090;SDS011;5599;52.210;21.046;2023-06-10T07:03:47;4.65;;;4.22;;
11090;SDS011;5599;52.210;21.046;2023-06-10T07:06:17;8.18;;;4.50;;
11090;SDS011;5599;52.210;21.046;2023-06-10T07:08:48;5.53;;;4.50;;
11090;SDS011;5599;52.210;21.046;2023-06-10T07:11:18;6.50;;;4.63;;
11090;SDS011;5599;52.210;21.046;2023-06-10T07:13:49;7.70;;;4.45;;
11090;SDS011;5599;52.210;21.046;2023-06-10T07:16:18;6.47;;;4.43;;
11090;SDS011;5599;52.210;21.046;2023-06-10T07:18:48;5.78;;;4.60;;
11090;SDS011;5599;52.210;21.046;2023-06-10T07:21:19;6.15;;;4.43;;
11090;SDS011;5599;52.210;21.046;2023-06-10T07:23:49;5.60;;;4.47;;
11090;SDS011;5599;52.210;21.046;2023-06-10T07:26:21;5.93;;;4.80;;
11090;SDS011;5599;52.210;21.046;2023-06-10T07:28:50;8.52;;;4.53;;
11090;SDS011;5599;52.210;21.046;2023-06-10T07:31:20;9.10;;;5.07;;
11090;SDS011;5599;52.210;21.046;2023-06-10T07:33:49;9.80;;;5.00;;
11090;SDS011;5599;52.210;21.046;2023-06-10T07:36:20;9.35;;;4.72;;
11090;SDS011;5599;52.210;21.046;2023-06-10T07:38:49;6.95;;;4.60;;
11090;SDS011;5599;52.210;21.046;2023-06-10T07:41:19;8.10;;;4.13;;
11090;SDS011;5599;52.210;21.046;2023-06-10T07:43:48;6.43;;;4.57;;
11090;SDS011;5599;52.210;21.046;2023-06-10T07:46:21;5.78;;;4.57;;
11090;SDS011;5599;52.210;21.046;2023-06-10T07:48:50;5.38;;;4.85;;
11090;SDS011;5599;52.210;21.046;2023-06-10T07:51:21;6.25;;;4.38;;
11090;SDS011;5599;52.210;21.046;2023-06-10T07:53:51;4.75;;;4.22;;
11090;SDS011;5599;52.210;21.046;2023-06-10T07:56:20;5.78;;;4.65;;
11090;SDS011;5599;52.210;21.046;2023-06-10T07:58:49;9.38;;;4.60;;
11090;SDS011;5599;52.210;21.046;2023-06-10T08:01:19;7.32;;;4.65;;
11090;SDS011;5599;52.210;21.046;2023-06-10T08:03:48;16.15;;;4.90;;
11090;SDS011;5599;52.210;21.046;2023-06-10T08:06:18;10.35;;;5.03;;
11090;SDS011;5599;52.210;21.046;2023-06-10T08:08:49;8.05;;;5.00;;
11090;SDS011;5599;52.210;21.046;2023-06-10T08:11:18;7.93;;;4.78;;
11090;SDS011;5599;52.210;21.046;2023-06-10T08:13:47;9.73;;;4.70;;
11090;SDS011;5599;52.210;21.046;2023-06-10T08:16:17;7.45;;;5.15;;
11090;SDS011;5599;52.210;21.046;2023-06-10T08:18:46;6.45;;;4.63;;
11090;SDS011;5599;52.210;21.046;2023-06-10T08:21:21;8.05;;;4.70;;
11090;SDS011;5599;52.210;21.046;2023-06-10T08:23:53;6.40;;;4.63;;
11090;SDS011;5599;52.210;21.046;2023-06-10T08:26:23;6.55;;;4.65;;
11090;SDS011;5599;52.210;21.046;2023-06-10T08:28:53;5.03;;;4.15;;
11090;SDS011;5599;52.210;21.046;2023-06-10T08:31:22;5.45;;;4.38;;
11090;SDS011;5599;52.210;21.046;2023-06-10T08:33:52;5.18;;;4.47;;
11090;SDS011;5599;52.210;21.046;2023-06-10T08:36:21;6.40;;;4.53;;
11090;SDS011;5599;52.210;21.046;2023-06-10T08:38:50;5.10;;;4.03;;
11090;SDS011;5599;52.210;21.046;2023-06-10T08:41:21;5.07;;;4.10;;
11090;SDS011;5599;52.210;21.046;2023-06-10T08:43:55;11.40;;;4.45;;
11090;SDS011;5599;52.210;21.046;2023-06-10T08:46:36;5.60;;;4.32;;
11090;SDS011;5599;52.210;21.046;2023-06-10T08:49:07;8.98;;;4.15;;
11090;SDS011;5599;52.210;21.046;2023-06-10T08:51:36;6.25;;;4.20;;
11090;SDS011;5599;52.210;21.046;2023-06-10T08:54:10;5.80;;;4.13;;
11090;SDS011;5599;52.210;21.046;2023-06-10T08:56:45;6.35;;;4.55;;
11090;SDS011;5599;52.210;21.046;2023-06-10T08:59:18;9.32;;;4.57;;
11090;SDS011;5599;52.210;21.046;2023-06-10T09:01:48;7.07;;;4.30;;
11090;SDS011;5599;52.210;21.046;2023-06-10T09:04:19;6.55;;;4.20;;
11090;SDS011;5599;52.210;21.046;2023-06-10T09:06:49;10.15;;;4.43;;
11090;SDS011;5599;52.210;21.046;2023-06-10T09:09:19;6.88;;;4.07;;
11090;SDS011;5599;52.210;21.046;2023-06-10T09:11:50;5.93;;;4.72;;
11090;SDS011;5599;52.210;21.046;2023-06-10T09:14:20;5.50;;;4.25;;
11090;SDS011;5599;52.210;21.046;2023-06-10T09:16:50;6.80;;;3.90;;
11090;SDS011;5599;52.210;21.046;2023-06-10T09:19:19;8.73;;;4.53;;
11090;SDS011;5599;52.210;21.046;2023-06-10T09:21:49;7.65;;;4.38;;
11090;SDS011;5599;52.210;21.046;2023-06-10T09:24:19;5.38;;;4.88;;
11090;SDS011;5599;52.210;21.046;2023-06-10T09:26:52;6.13;;;4.53;;
11090;SDS011;5599;52.210;21.046;2023-06-10T09:29:45;5.50;;;4.43;;
11090;SDS011;5599;52.210;21.046;2023-06-10T09:32:17;5.10;;;4.60;;
11090;SDS011;5599;52.210;21.046;2023-06-10T09:34:46;5.43;;;4.07;;
11090;SDS011;5599;52.210;21.046;2023-06-10T09:37:19;7.50;;;4.80;;
11090;SDS011;5599;52.210;21.046;2023-06-10T09:40:02;5.60;;;4.45;;
11090;SDS011;5599;52.210;21.046;2023-06-10T09:42:35;11.40;;;4.50;;
11090;SDS011;5599;52.210;21.046;2023-06-10T09:45:06;12.15;;;4.18;;
11090;SDS011;5599;52.210;21.046;2023-06-10T09:47:36;5.28;;;3.63;;
11090;SDS011;5599;52.210;21.046;2023-06-10T09:50:06;7.68;;;3.97;;
11090;SDS011;5599;52.210;21.046;2023-06-10T09:52:37;5.47;;;4.40;;
11090;SDS011;5599;52.210;21.046;2023-06-10T09:55:08;5.53;;;3.92;;
11090;SDS011;5599;52.210;21.046;2023-06-10T09:57:39;4.60;;;4.00;;
11090;SDS011;5599;52.210;21.046;2023-06-10T10:00:11;5.63;;;4.18;;
11090;SDS011;5599;52.210;21.046;2023-06-10T10:02:47;9.48;;;4.53;;
11090;SDS011;5599;52.210;21.046;2023-06-10T10:05:18;8.50;;;3.65;;
11090;SDS011;5599;52.210;21.046;2023-06-10T10:07:50;5.30;;;3.90;;
11090;SDS011;5599;52.210;21.046;2023-06-10T10:10:20;6.30;;;3.75;;
11090;SDS011;5599;52.210;21.046;2023-06-10T10:12:53;4.63;;;3.63;;
11090;SDS011;5599;52.210;21.046;2023-06-10T10:15:25;5.00;;;4.05;;
11090;SDS011;5599;52.210;21.046;2023-06-10T10:18:04;4.22;;;3.83;;
11090;SDS011;5599;52.210;21.046;2023-06-10T10:20:39;7.10;;;4.07;;
11090;SDS011;5599;52.210;21.046;2023-06-10T10:23:14;4.20;;;3.75;;
11090;SDS011;5599;52.210;21.046;2023-06-10T10:25:58;6.70;;;3.58;;
11090;SDS011;5599;52.210;21.046;2023-06-10T10:28:41;6.82;;;4.07;;
11090;SDS011;5599;52.210;21.046;2023-06-10T10:31:17;4.70;;;4.20;;
11090;SDS011;5599;52.210;21.046;2023-06-10T10:33:51;8.55;;;3.78;;
11090;SDS011;5599;52.210;21.046;2023-06-10T10:36:24;6.25;;;4.15;;
11090;SDS011;5599;52.210;21.046;2023-06-10T10:38:54;6.28;;;4.00;;
11090;SDS011;5599;52.210;21.046;2023-06-10T10:41:24;6.47;;;4.30;;
11090;SDS011;5599;52.210;21.046;2023-06-10T10:43:56;5.47;;;3.85;;
11090;SDS011;5599;52.210;21.046;2023-06-10T10:46:26;4.95;;;3.45;;
11090;SDS011;5599;52.210;21.046;2023-06-10T10:48:56;6.25;;;3.53;;
11090;SDS011;5599;52.210;21.046;2023-06-10T10:51:26;5.63;;;3.75;;
11090;SDS011;5599;52.210;21.046;2023-06-10T10:54:11;8.02;;;4.18;;
11090;SDS011;5599;52.210;21.046;2023-06-10T10:59:50;7.45;;;3.97;;
11090;SDS011;5599;52.210;21.046;2023-06-10T11:02:32;7.00;;;3.85;;
11090;SDS011;5599;52.210;21.046;2023-06-10T11:05:06;8.95;;;4.40;;
11090;SDS011;5599;52.210;21.046;2023-06-10T11:07:37;6.38;;;4.10;;
11090;SDS011;5599;52.210;21.046;2023-06-10T11:10:07;5.43;;;4.50;;
11090;SDS011;5599;52.210;21.046;2023-06-10T11:12:41;8.32;;;4.07;;
11090;SDS011;5599;52.210;21.046;2023-06-10T11:15:19;6.70;;;3.88;;
11090;SDS011;5599;52.210;21.046;2023-06-10T11:18:06;5.43;;;3.72;;
11090;SDS011;5599;52.210;21.046;2023-06-10T11:20:51;5.72;;;3.50;;
11090;SDS011;5599;52.210;21.046;2023-06-10T11:26:15;5.55;;;3.92;;
11090;SDS011;5599;52.210;21.046;2023-06-10T11:29:05;4.78;;;3.78;;
11090;SDS011;5599;52.210;21.046;2023-06-10T11:31:41;5.65;;;4.55;;
11090;SDS011;5599;52.210;21.046;2023-06-10T11:34:12;4.63;;;4.15;;
11090;SDS011;5599;52.210;21.046;2023-06-10T11:36:42;5.00;;;4.07;;
11090;SDS011;5599;52.210;21.046;2023-06-10T11:39:13;5.85;;;3.60;;
11090;SDS011;5599;52.210;21.046;2023-06-10T11:41:42;6.72;;;3.70;;
11090;SDS011;5599;52.210;21.046;2023-06-10T11:44:12;6.55;;;4.07;;
11090;SDS011;5599;52.210;21.046;2023-06-10T11:46:48;5.25;;;4.70;;
11090;SDS011;5599;52.210;21.046;2023-06-10T11:49:20;8.15;;;4.53;;
11090;SDS011;5599;52.210;21.046;2023-06-10T11:51:49;6.68;;;4.30;;
11090;SDS011;5599;52.210;21.046;2023-06-10T11:54:19;6.55;;;4.47;;
11090;SDS011;5599;52.210;21.046;2023-06-10T11:56:49;5.53;;;4.65;;
11090;SDS011;5599;52.210;21.046;2023-06-10T11:59:18;6.05;;;4.15;;
11090;SDS011;5599;52.210;21.046;2023-06-10T12:01:56;5.75;;;4.20;;
11090;SDS011;5599;52.210;21.046;2023-06-10T12:04:26;5.82;;;4.38;;
11090;SDS011;5599;52.210;21.046;2023-06-10T12:06:56;3.97;;;3.65;;
11090;SDS011;5599;52.210;21.046;2023-06-10T12:09:25;5.72;;;4.22;;
11090;SDS011;5599;52.210;21.046;2023-06-10T12:11:57;4.60;;;4.10;;
11090;SDS011;5599;52.210;21.046;2023-06-10T12:17:22;6.40;;;4.20;;
11090;SDS011;5599;52.210;21.046;2023-06-10T12:20:05;5.40;;;4.85;;
11090;SDS011;5599;52.210;21.046;2023-06-10T12:22:36;5.88;;;4.63;;
11090;SDS011;5599;52.210;21.046;2023-06-10T12:25:06;7.18;;;4.53;;
11090;SDS011;5599;52.210;21.046;2023-06-10T12:27:38;7.65;;;4.35;;
11090;SDS011;5599;52.210;21.046;2023-06-10T12:30:10;8.05;;;4.90;;
11090;SDS011;5599;52.210;21.046;2023-06-10T12:32:48;5.05;;;4.28;;
11090;SDS011;5599;52.210;21.046;2023-06-10T12:35:19;8.73;;;5.20;;
11090;SDS011;5599;52.210;21.046;2023-06-10T12:37:54;5.35;;;4.40;;
11090;SDS011;5599;52.210;21.046;2023-06-10T12:40:26;5.47;;;4.97;;
11090;SDS011;5599;52.210;21.046;2023-06-10T12:42:57;12.35;;;4.85;;
11090;SDS011;5599;52.210;21.046;2023-06-10T12:45:27;4.97;;;4.55;;
11090;SDS011;5599;52.210;21.046;2023-06-10T12:48:05;5.70;;;5.03;;
11090;SDS011;5599;52.210;21.046;2023-06-10T12:50:36;4.80;;;4.40;;
11090;SDS011;5599;52.210;21.046;2023-06-10T12:53:07;5.18;;;4.63;;
11090;SDS011;5599;52.210;21.046;2023-06-10T12:55:38;5.32;;;4.82;;
11090;SDS011;5599;52.210;21.046;2023-06-10T12:58:08;7.63;;;5.03;;
11090;SDS011;5599;52.210;21.046;2023-06-10T13:00:37;5.70;;;4.53;;
11090;SDS011;5599;52.210;21.046;2023-06-10T13:03:08;6.65;;;4.70;;
11090;SDS011;5599;52.210;21.046;2023-06-10T13:05:38;5.47;;;4.60;;
11090;SDS011;5599;52.210;21.046;2023-06-10T13:08:08;5.63;;;4.32;;
11090;SDS011;5599;52.210;21.046;2023-06-10T13:10:38;5.03;;;4.40;;
11090;SDS011;5599;52.210;21.046;2023-06-10T13:13:07;6.47;;;4.65;;
11090;SDS011;5599;52.210;21.046;2023-06-10T13:15:37;5.20;;;4.70;;
11090;SDS011;5599;52.210;21.046;2023-06-10T13:18:11;5.32;;;4.70;;
11090;SDS011;5599;52.210;21.046;2023-06-10T13:20:41;5.03;;;4.53;;
11090;SDS011;5599;52.210;21.046;2023-06-10T13:23:11;7.20;;;5.05;;
11090;SDS011;5599;52.210;21.046;2023-06-10T13:25:40;7.75;;;4.60;;
11090;SDS011;5599;52.210;21.046;2023-06-10T13:28:11;5.88;;;5.28;;
11090;SDS011;5599;52.210;21.046;2023-06-10T13:30:41;5.60;;;5.00;;
11090;SDS011;5599;52.210;21.046;2023-06-10T13:33:11;8.77;;;5.60;;
11090;SDS011;5599;52.210;21.046;2023-06-10T13:35:41;9.00;;;5.00;;
11090;SDS011;5599;52.210;21.046;2023-06-10T13:38:11;5.57;;;4.90;;
11090;SDS011;5599;52.210;21.046;2023-06-10T13:40:40;9.27;;;4.80;;
11090;SDS011;5599;52.210;21.046;2023-06-10T13:43:09;5.43;;;4.82;;
11090;SDS011;5599;52.210;21.046;2023-06-10T13:45:40;6.55;;;5.00;;
11090;SDS011;5599;52.210;21.046;2023-06-10T13:48:11;5.80;;;4.80;;
11090;SDS011;5599;52.210;21.046;2023-06-10T13:50:40;5.63;;;4.80;;
11090;SDS011;5599;52.210;21.046;2023-06-10T13:53:12;8.02;;;5.15;;
11090;SDS011;5599;52.210;21.046;2023-06-10T13:55:42;7.38;;;5.05;;
11090;SDS011;5599;52.210;21.046;2023-06-10T13:58:11;5.30;;;4.80;;
11090;SDS011;5599;52.210;21.046;2023-06-10T14:00:40;7.45;;;5.05;;
11090;SDS011;5599;52.210;21.046;2023-06-10T14:03:09;5.22;;;4.72;;
11090;SDS011;5599;52.210;21.046;2023-06-10T14:05:40;5.45;;;4.57;;
11090;SDS011;5599;52.210;21.046;2023-06-10T14:08:10;7.80;;;4.95;;
11090;SDS011;5599;52.210;21.046;2023-06-10T14:10:40;5.70;;;5.07;;
11090;SDS011;5599;52.210;21.046;2023-06-10T14:13:10;5.90;;;4.90;;
11090;SDS011;5599;52.210;21.046;2023-06-10T14:15:39;6.18;;;5.57;;
11090;SDS011;5599;52.210;21.046;2023-06-10T14:18:09;5.72;;;5.22;;
11090;SDS011;5599;52.210;21.046;2023-06-10T14:20:40;6.65;;;4.75;;
11090;SDS011;5599;52.210;21.046;2023-06-10T14:23:09;6.88;;;4.68;;
11090;SDS011;5599;52.210;21.046;2023-06-10T14:25:38;5.80;;;5.03;;
11090;SDS011;5599;52.210;21.046;2023-06-10T14:28:08;7.57;;;4.80;;
11090;SDS011;5599;52.210;21.046;2023-06-10T14:30:37;7.07;;;5.10;;
11090;SDS011;5599;52.210;21.046;2023-06-10T14:33:07;7.38;;;4.50;;
11090;SDS011;5599;52.210;21.046;2023-06-10T14:35:36;6.50;;;5.10;;
11090;SDS011;5599;52.210;21.046;2023-06-10T14:38:07;4.93;;;4.53;;
11090;SDS011;5599;52.210;21.046;2023-06-10T14:40:37;7.07;;;5.13;;
11090;SDS011;5599;52.210;21.046;2023-06-10T14:43:06;5.38;;;4.85;;
11090;SDS011;5599;52.210;21.046;2023-06-10T14:45:37;7.45;;;5.15;;
11090;SDS011;5599;52.210;21.046;2023-06-10T14:48:07;5.45;;;4.93;;
11090;SDS011;5599;52.210;21.046;2023-06-10T14:50:37;5.55;;;5.05;;
11090;SDS011;5599;52.210;21.046;2023-06-10T14:53:09;5.95;;;5.28;;
11090;SDS011;5599;52.210;21.046;2023-06-10T14:55:38;5.28;;;4.78;;
11090;SDS011;5599;52.210;21.046;2023-06-10T14:58:07;9.52;;;5.20;;
11090;SDS011;5599;52.210;21.046;2023-06-10T15:00:37;7.35;;;5.13;;
11090;SDS011;5599;52.210;21.046;2023-06-10T15:03:06;6.22;;;4.47;;
11090;SDS011;5599;52.210;21.046;2023-06-10T15:05:36;5.85;;;5.00;;
11090;SDS011;5599;52.210;21.046;2023-06-10T15:08:05;12.02;;;4.93;;
11090;SDS011;5599;52.210;21.046;2023-06-10T15:10:36;5.05;;;4.47;;
11090;SDS011;5599;52.210;21.046;2023-06-10T15:13:05;6.35;;;4.90;;
11090;SDS011;5599;52.210;21.046;2023-06-10T15:15:35;7.72;;;4.88;;
11090;SDS011;5599;52.210;21.046;2023-06-10T15:18:04;10.45;;;4.50;;
11090;SDS011;5599;52.210;21.046;2023-06-10T15:20:33;5.60;;;4.90;;